sensor_id;sensor_type;location;lat;lon;timestamp;pressure;altitude;pressure_sealevel;temperature;humidity
39141;BME280;24875;48.436;10.298;2023-02-28T00:01:11;96779.19;;;-0.91;93.08
39141;BME280;24875;48.436;10.298;2023-02-28T00:03:38;96779.09;;;-0.89;92.13
39141;BME280;24875;48.436;10.298;2023-02-28T00:06:06;96775.66;;;-0.76;90.60
39141;BME280;24875;48.436;10.298;2023-02-28T00:08:32;96773.84;;;-0.88;89.22
39141;BME280;24875;48.436;10.298;2023-02-28T00:11:02;96770.69;;;-0.79;90.02
39141;BME280;24875;48.436;10.298;2023-02-28T00:13:28;96769.78;;;-0.92;88.11
39141;BME280;24875;48.436;10.298;2023-02-28T00:15:59;96761.06;;;-0.77;87.36
39141;BME280;24875;48.436;10.298;2023-02-28T00:18:26;96766.28;;;-0.91;87.89
39141;BME280;24875;48.436;10.298;2023-02-28T00:20:53;96769.41;;;-0.86;88.47
39141;BME280;24875;48.436;10.298;2023-02-28T00:23:19;96763.13;;;-0.96;86.81
39141;BME280;24875;48.436;10.298;2023-02-28T00:25:45;96760.75;;;-0.99;89.22
39141;BME280;24875;48.436;10.298;2023-02-28T00:28:13;96757.78;;;-0.93;88.19
39141;BME280;24875;48.436;10.298;2023-02-28T00:30:40;96759.84;;;-1.12;88.47
39141;BME280;24875;48.436;10.298;2023-02-28T00:33:06;96754.81;;;-1.01;88.80
39141;BME280;24875;48.436;10.298;2023-02-28T00:35:33;96757.34;;;-0.99;88.85
39141;BME280;24875;48.436;10.298;2023-02-28T00:37:59;96753.94;;;-1.14;90.29
39141;BME280;24875;48.436;10.298;2023-02-28T00:40:25;96756.06;;;-1.06;89.25
39141;BME280;24875;48.436;10.298;2023-02-28T00:42:52;96764.91;;;-1.10;88.77
39141;BME280;24875;48.436;10.298;2023-02-28T00:45:20;96755.22;;;-0.93;88.16
39141;BME280;24875;48.436;10.298;2023-02-28T00:47:46;96759.66;;;-1.09;87.71
39141;BME280;24875;48.436;10.298;2023-02-28T00:50:15;96757.97;;;-1.10;88.89
39141;BME280;24875;48.436;10.298;2023-02-28T00:52:42;96753.75;;;-1.11;88.87
39141;BME280;24875;48.436;10.298;2023-02-28T00:55:09;96754.34;;;-1.20;89.31
39141;BME280;24875;48.436;10.298;2023-02-28T00:57:35;96758.16;;;-0.99;89.61
39141;BME280;24875;48.436;10.298;2023-02-28T01:00:03;96755.41;;;-1.10;88.47
39141;BME280;24875;48.436;10.298;2023-02-28T01:02:31;96758.16;;;-0.99;88.58
39141;BME280;24875;48.436;10.298;2023-02-28T01:04:57;96755.59;;;-1.13;88.75
39141;BME280;24875;48.436;10.298;2023-02-28T01:07:24;96758.53;;;-1.05;89.67
39141;BME280;24875;48.436;10.298;2023-02-28T01:09:50;96751.78;;;-1.07;89.18
39141;BME280;24875;48.436;10.298;2023-02-28T01:12:17;96757.06;;;-1.09;90.09
39141;BME280;24875;48.436;10.298;2023-02-28T01:14:43;96747.28;;;-1.04;90.31
39141;BME280;24875;48.436;10.298;2023-02-28T01:17:10;96754.31;;;-1.06;89.97
39141;BME280;24875;48.436;10.298;2023-02-28T01:19:38;96753.38;;;-1.05;89.24
39141;BME280;24875;48.436;10.298;2023-02-28T01:22:05;96747.38;;;-1.05;89.14
39141;BME280;24875;48.436;10.298;2023-02-28T01:24:32;96756.91;;;-1.06;89.60
39141;BME280;24875;48.436;10.298;2023-02-28T01:26:58;96757.03;;;-0.95;89.94
39141;BME280;24875;48.436;10.298;2023-02-28T01:29:25;96749.84;;;-1.04;89.30
39141;BME280;24875;48.436;10.298;2023-02-28T01:31:51;96755.81;;;-0.89;88.86
39141;BME280;24875;48.436;10.298;2023-02-28T01:34:18;96743.41;;;-0.97;89.17
39141;BME280;24875;48.436;10.298;2023-02-28T01:36:46;96747.81;;;-0.99;89.08
39141;BME280;24875;48.436;10.298;2023-02-28T01:39:13;96742.84;;;-1.02;88.90
39141;BME280;24875;48.436;10.298;2023-02-28T01:41:39;96742.66;;;-1.13;88.75
39141;BME280;24875;48.436;10.298;2023-02-28T01:44:07;96747.06;;;-1.01;89.54
39141;BME280;24875;48.436;10.298;2023-02-28T01:46:53;96744.56;;;-0.88;89.95
39141;BME280;24875;48.436;10.298;2023-02-28T01:49:19;96737.69;;;-1.02;90.25
39141;BME280;24875;48.436;10.298;2023-02-28T01:51:49;96739.94;;;-0.83;90.02
39141;BME280;24875;48.436;10.298;2023-02-28T01:54:23;96744.06;;;-0.81;88.94
39141;BME280;24875;48.436;10.298;2023-02-28T01:56:53;96738.38;;;-0.86;89.19
39141;BME280;24875;48.436;10.298;2023-02-28T01:59:25;96740.69;;;-0.81;87.92
39141;BME280;24875;48.436;10.298;2023-02-28T02:01:53;96726.31;;;-0.99;88.93
39141;BME280;24875;48.436;10.298;2023-02-28T02:04:21;96732.38;;;-0.86;88.98
39141;BME280;24875;48.436;10.298;2023-02-28T02:06:51;96728.00;;;-0.86;89.11
39141;BME280;24875;48.436;10.298;2023-02-28T02:09:18;96724.72;;;-0.88;88.52
39141;BME280;24875;48.436;10.298;2023-02-28T02:11:45;96728.13;;;-0.87;87.92
39141;BME280;24875;48.436;10.298;2023-02-28T02:14:36;96725.44;;;-0.86;88.62
39141;BME280;24875;48.436;10.298;2023-02-28T02:17:18;96722.63;;;-0.83;88.46
39141;BME280;24875;48.436;10.298;2023-02-28T02:25:54;96721.19;;;-0.87;88.39
39141;BME280;24875;48.436;10.298;2023-02-28T02:28:46;96721.00;;;-0.84;90.00
39141;BME280;24875;48.436;10.298;2023-02-28T02:31:56;96719.81;;;-0.92;89.00
39141;BME280;24875;48.436;10.298;2023-02-28T02:34:40;96721.00;;;-0.84;89.16
39141;BME280;24875;48.436;10.298;2023-02-28T02:37:14;96719.06;;;-0.94;89.50
39141;BME280;24875;48.436;10.298;2023-02-28T02:39:48;96714.19;;;-0.99;89.44
39141;BME280;24875;48.436;10.298;2023-02-28T02:42:23;96716.03;;;-1.01;87.90
39141;BME280;24875;48.436;10.298;2023-02-28T02:44:56;96710.84;;;-0.87;88.42
39141;BME280;24875;48.436;10.298;2023-02-28T02:47:28;96714.53;;;-0.91;88.56
39141;BME280;24875;48.436;10.298;2023-02-28T02:49:59;96716.38;;;-0.79;89.27
39141;BME280;24875;48.436;10.298;2023-02-28T02:52:33;96716.31;;;-0.91;88.71
39141;BME280;24875;48.436;10.298;2023-02-28T02:55:02;96715.44;;;-1.04;89.03
39141;BME280;24875;48.436;10.298;2023-02-28T02:57:33;96720.03;;;-0.95;88.53
39141;BME280;24875;48.436;10.298;2023-02-28T03:00:03;96723.03;;;-0.89;88.59
39141;BME280;24875;48.436;10.298;2023-02-28T03:02:34;96721.81;;;-0.83;88.26
39141;BME280;24875;48.436;10.298;2023-02-28T03:05:07;96723.38;;;-0.81;88.26
39141;BME280;24875;48.436;10.298;2023-02-28T03:07:35;96725.47;;;-1.00;87.39
39141;BME280;24875;48.436;10.298;2023-02-28T03:10:01;96726.09;;;-0.96;88.21
39141;BME280;24875;48.436;10.298;2023-02-28T03:12:41;96728.25;;;-0.76;88.80
39141;BME280;24875;48.436;10.298;2023-02-28T03:15:20;96721.53;;;-0.79;88.33
39141;BME280;24875;48.436;10.298;2023-02-28T03:18:01;96733.34;;;-0.75;87.13
39141;BME280;24875;48.436;10.298;2023-02-28T03:20:39;96724.84;;;-0.77;88.26
39141;BME280;24875;48.436;10.298;2023-02-28T03:23:13;96723.13;;;-0.64;88.37
39141;BME280;24875;48.436;10.298;2023-02-28T03:25:51;96734.81;;;-0.71;87.99
39141;BME280;24875;48.436;10.298;2023-02-28T03:28:23;96728.66;;;-0.82;88.67
39141;BME280;24875;48.436;10.298;2023-02-28T03:30:56;96723.19;;;-0.78;89.05
39141;BME280;24875;48.436;10.298;2023-02-28T03:33:28;96728.06;;;-0.73;88.57
39141;BME280;24875;48.436;10.298;2023-02-28T03:35:59;96726.75;;;-0.66;87.86
39141;BME280;24875;48.436;10.298;2023-02-28T03:38:32;96729.22;;;-0.65;87.41
39141;BME280;24875;48.436;10.298;2023-02-28T03:41:05;96729.44;;;-0.68;87.45
39141;BME280;24875;48.436;10.298;2023-02-28T03:43:36;96733.78;;;-0.68;86.77
39141;BME280;24875;48.436;10.298;2023-02-28T03:46:08;96731.31;;;-0.70;86.80
39141;BME280;24875;48.436;10.298;2023-02-28T03:48:39;96738.16;;;-0.57;87.29
39141;BME280;24875;48.436;10.298;2023-02-28T03:51:11;96724.47;;;-0.71;86.56
39141;BME280;24875;48.436;10.298;2023-02-28T03:53:42;96731.81;;;-0.65;87.57
39141;BME280;24875;48.436;10.298;2023-02-28T03:56:14;96733.47;;;-0.64;86.31
39141;BME280;24875;48.436;10.298;2023-02-28T03:58:45;96739.06;;;-0.70;86.60
39141;BME280;24875;48.436;10.298;2023-02-28T04:01:18;96738.66;;;-0.64;85.58
39141;BME280;24875;48.436;10.298;2023-02-28T04:03:46;96735.72;;;-0.72;85.63
39141;BME280;24875;48.436;10.298;2023-02-28T04:06:17;96735.25;;;-0.64;85.53
39141;BME280;24875;48.436;10.298;2023-02-28T04:08:44;96732.06;;;-0.82;85.79
39141;BME280;24875;48.436;10.298;2023-02-28T04:11:18;96734.81;;;-0.71;86.18
39141;BME280;24875;48.436;10.298;2023-02-28T04:13:46;96737.34;;;-0.83;85.51
39141;BME280;24875;48.436;10.298;2023-02-28T04:16:12;96732.41;;;-0.74;85.64
39141;BME280;24875;48.436;10.298;2023-02-28T04:18:39;96738.97;;;-0.68;85.65
39141;BME280;24875;48.436;10.298;2023-02-28T04:21:05;96741.50;;;-0.81;85.25
39141;BME280;24875;48.436;10.298;2023-02-28T04:23:33;96739.25;;;-0.73;85.60
39141;BME280;24875;48.436;10.298;2023-02-28T04:25:59;96741.81;;;-0.73;86.02
39141;BME280;24875;48.436;10.298;2023-02-28T04:28:26;96748.78;;;-0.73;85.95
39141;BME280;24875;48.436;10.298;2023-02-28T04:30:56;96742.69;;;-0.60;85.45
39141;BME280;24875;48.436;10.298;2023-02-28T04:33:23;96750.69;;;-0.63;85.30
39141;BME280;24875;48.436;10.298;2023-02-28T04:35:58;96747.81;;;-0.59;85.72
39141;BME280;24875;48.436;10.298;2023-02-28T04:38:24;96749.78;;;-0.76;86.40
39141;BME280;24875;48.436;10.298;2023-02-28T04:40:52;96742.38;;;-0.68;86.41
39141;BME280;24875;48.436;10.298;2023-02-28T04:43:18;96742.41;;;-0.82;86.01
39141;BME280;24875;48.436;10.298;2023-02-28T04:45:45;96737.13;;;-0.80;86.42
39141;BME280;24875;48.436;10.298;2023-02-28T04:48:11;96743.34;;;-0.83;86.40
39141;BME280;24875;48.436;10.298;2023-02-28T04:50:37;96751.63;;;-0.78;86.56
39141;BME280;24875;48.436;10.298;2023-02-28T04:53:04;96748.50;;;-0.83;85.94
39141;BME280;24875;48.436;10.298;2023-02-28T04:55:30;96744.41;;;-0.73;86.08
39141;BME280;24875;48.436;10.298;2023-02-28T04:57:58;96739.44;;;-0.76;86.37
39141;BME280;24875;48.436;10.298;2023-02-28T05:00:24;96743.88;;;-0.78;86.43
39141;BME280;24875;48.436;10.298;2023-02-28T05:02:51;96746.88;;;-0.84;86.16
39141;BME280;24875;48.436;10.298;2023-02-28T05:05:17;96753.09;;;-0.74;86.20
39141;BME280;24875;48.436;10.298;2023-02-28T05:07:44;96744.81;;;-0.79;85.47
39141;BME280;24875;48.436;10.298;2023-02-28T05:10:11;96745.41;;;-0.88;86.04
39141;BME280;24875;48.436;10.298;2023-02-28T05:12:37;96744.81;;;-0.79;86.98
39141;BME280;24875;48.436;10.298;2023-02-28T05:15:08;96742.38;;;-0.68;86.33
39141;BME280;24875;48.436;10.298;2023-02-28T05:17:38;96750.00;;;-0.79;86.93
39141;BME280;24875;48.436;10.298;2023-02-28T05:20:06;96746.28;;;-0.75;86.76
39141;BME280;24875;48.436;10.298;2023-02-28T05:22:34;96756.09;;;-0.80;86.53
39141;BME280;24875;48.436;10.298;2023-02-28T05:25:00;96759.22;;;-0.75;86.28
39141;BME280;24875;48.436;10.298;2023-02-28T05:27:26;96757.22;;;-0.84;87.10
39141;BME280;24875;48.436;10.298;2023-02-28T05:29:54;96752.97;;;-0.85;86.37
39141;BME280;24875;48.436;10.298;2023-02-28T05:32:21;96748.13;;;-0.77;86.42
39141;BME280;24875;48.436;10.298;2023-02-28T05:34:48;96755.19;;;-0.79;85.38
39141;BME280;24875;48.436;10.298;2023-02-28T05:37:15;96762.19;;;-0.81;86.29
39141;BME280;24875;48.436;10.298;2023-02-28T05:39:41;96759.81;;;-0.84;86.77
39141;BME280;24875;48.436;10.298;2023-02-28T05:42:08;96763.28;;;-0.71;87.08
39141;BME280;24875;48.436;10.298;2023-02-28T05:44:35;96764.44;;;-0.89;87.06
39141;BME280;24875;48.436;10.298;2023-02-28T05:47:02;96771.50;;;-0.78;87.23
39141;BME280;24875;48.436;10.298;2023-02-28T05:49:29;96760.03;;;-0.74;87.24
39141;BME280;24875;48.436;10.298;2023-02-28T05:51:56;96763.00;;;-0.80;86.64
39141;BME280;24875;48.436;10.298;2023-02-28T05:54:22;96769.03;;;-0.80;86.21
39141;BME280;24875;48.436;10.298;2023-02-28T05:56:49;96769.13;;;-0.81;87.02
39141;BME280;24875;48.436;10.298;2023-02-28T05:59:15;96776.03;;;-0.82;86.45
39141;BME280;24875;48.436;10.298;2023-02-28T06:01:43;96788.94;;;-0.68;85.98
39141;BME280;24875;48.436;10.298;2023-02-28T06:04:14;96781.38;;;-0.71;86.62
39141;BME280;24875;48.436;10.298;2023-02-28T06:06:44;96778.59;;;-0.68;86.24
39141;BME280;24875;48.436;10.298;2023-02-28T06:09:11;96783.91;;;-0.83;86.38
39141;BME280;24875;48.436;10.298;2023-02-28T06:11:37;96782.69;;;-0.78;86.14
39141;BME280;24875;48.436;10.298;2023-02-28T06:14:04;96793.69;;;-0.74;86.29
39141;BME280;24875;48.436;10.298;2023-02-28T06:16:33;96782.69;;;-0.78;86.64
39141;BME280;24875;48.436;10.298;2023-02-28T06:19:01;96787.28;;;-0.69;86.13
39141;BME280;24875;48.436;10.298;2023-02-28T06:21:28;96791.00;;;-0.73;85.12
39141;BME280;24875;48.436;10.298;2023-02-28T06:23:57;96791.69;;;-0.57;85.28
39141;BME280;24875;48.436;10.298;2023-02-28T06:26:24;96788.69;;;-0.77;85.42
39141;BME280;24875;48.436;10.298;2023-02-28T06:28:51;96789.91;;;-0.83;86.63
39141;BME280;24875;48.436;10.298;2023-02-28T06:31:18;96791.19;;;-0.76;85.38
39141;BME280;24875;48.436;10.298;2023-02-28T06:33:45;96797.00;;;-0.72;85.86
39141;BME280;24875;48.436;10.298;2023-02-28T06:36:13;96797.09;;;-0.74;86.36
39141;BME280;24875;48.436;10.298;2023-02-28T06:38:40;96805.59;;;-0.72;85.47
39141;BME280;24875;48.436;10.298;2023-02-28T06:41:08;96800.06;;;-0.80;86.19
39141;BME280;24875;48.436;10.298;2023-02-28T06:43:37;96814.63;;;-0.65;86.32
39141;BME280;24875;48.436;10.298;2023-02-28T06:46:06;96811.03;;;-0.76;85.54
39141;BME280;24875;48.436;10.298;2023-02-28T06:48:33;96820.13;;;-0.83;85.91
39141;BME280;24875;48.436;10.298;2023-02-28T06:51:04;96815.19;;;-0.74;85.81
39141;BME280;24875;48.436;10.298;2023-02-28T06:53:31;96804.56;;;-0.69;85.46
39141;BME280;24875;48.436;10.298;2023-02-28T06:55:58;96806.06;;;-0.79;85.87
39141;BME280;24875;48.436;10.298;2023-02-28T06:58:25;96816.16;;;-0.75;85.93
39141;BME280;24875;48.436;10.298;2023-02-28T07:00:52;96816.88;;;-0.87;85.92
39141;BME280;24875;48.436;10.298;2023-02-28T07:03:19;96823.63;;;-0.84;85.23
39141;BME280;24875;48.436;10.298;2023-02-28T07:05:45;96821.22;;;-0.87;86.61
39141;BME280;24875;48.436;10.298;2023-02-28T07:08:12;96822.06;;;-0.87;86.35
39141;BME280;24875;48.436;10.298;2023-02-28T07:10:39;96828.78;;;-0.84;86.04
39141;BME280;24875;48.436;10.298;2023-02-28T07:13:07;96829.06;;;-0.75;86.27
39141;BME280;24875;48.436;10.298;2023-02-28T07:15:36;96827.59;;;-0.79;85.23
39141;BME280;24875;48.436;10.298;2023-02-28T07:18:03;96837.47;;;-0.85;85.45
39141;BME280;24875;48.436;10.298;2023-02-28T07:20:30;96828.63;;;-0.81;85.93
39141;BME280;24875;48.436;10.298;2023-02-28T07:22:56;96826.28;;;-0.72;86.70
39141;BME280;24875;48.436;10.298;2023-02-28T07:25:23;96828.97;;;-0.73;86.52
39141;BME280;24875;48.436;10.298;2023-02-28T07:27:50;96835.53;;;-0.68;85.41
39141;BME280;24875;48.436;10.298;2023-02-28T07:30:17;96832.59;;;-0.76;85.83
39141;BME280;24875;48.436;10.298;2023-02-28T07:32:45;96838.84;;;-0.66;84.96
39141;BME280;24875;48.436;10.298;2023-02-28T07:35:12;96841.63;;;-0.69;85.92
39141;BME280;24875;48.436;10.298;2023-02-28T07:37:40;96837.19;;;-0.67;85.72
39141;BME280;24875;48.436;10.298;2023-02-28T07:40:10;96835.06;;;-0.74;85.55
39141;BME280;24875;48.436;10.298;2023-02-28T07:42:38;96845.34;;;-0.87;85.81
39141;BME280;24875;48.436;10.298;2023-02-28T07:45:06;96845.72;;;-0.79;85.95
39141;BME280;24875;48.436;10.298;2023-02-28T07:47:32;96854.88;;;-0.87;85.55
39141;BME280;24875;48.436;10.298;2023-02-28T07:50:00;96856.59;;;-0.74;86.34
39141;BME280;24875;48.436;10.298;2023-02-28T07:52:27;96847.09;;;-0.73;86.20
39141;BME280;24875;48.436;10.298;2023-02-28T07:54:53;96859.09;;;-0.72;85.03
39141;BME280;24875;48.436;10.298;2023-02-28T07:57:20;96863.06;;;-0.67;85.11
39141;BME280;24875;48.436;10.298;2023-02-28T07:59:46;96846.22;;;-0.60;86.14
39141;BME280;24875;48.436;10.298;2023-02-28T08:02:14;96843.63;;;-0.60;86.07
39141;BME280;24875;48.436;10.298;2023-02-28T08:04:40;96849.81;;;-0.63;85.34
39141;BME280;24875;48.436;10.298;2023-02-28T08:07:08;96850.09;;;-0.53;85.40
39141;BME280;24875;48.436;10.298;2023-02-28T08:09:38;96854.63;;;-0.57;84.72
39141;BME280;24875;48.436;10.298;2023-02-28T08:12:05;96859.69;;;-0.41;85.61
39141;BME280;24875;48.436;10.298;2023-02-28T08:14:32;96865.16;;;-0.46;84.91
39141;BME280;24875;48.436;10.298;2023-02-28T08:16:58;96860.63;;;-0.56;84.39
39141;BME280;24875;48.436;10.298;2023-02-28T08:19:25;96866.56;;;-0.68;84.84
39141;BME280;24875;48.436;10.298;2023-02-28T08:21:51;96866.38;;;-0.65;84.09
39141;BME280;24875;48.436;10.298;2023-02-28T08:24:19;96863.38;;;-0.45;84.89
39141;BME280;24875;48.436;10.298;2023-02-28T08:26:46;96866.06;;;-0.47;84.95
39141;BME280;24875;48.436;10.298;2023-02-28T08:29:12;96853.03;;;-0.45;83.44
39141;BME280;24875;48.436;10.298;2023-02-28T08:31:39;96860.44;;;-0.53;84.37
39141;BME280;24875;48.436;10.298;2023-02-28T08:34:06;96860.44;;;-0.53;84.15
39141;BME280;24875;48.436;10.298;2023-02-28T08:36:32;96861.47;;;-0.56;83.68
39141;BME280;24875;48.436;10.298;2023-02-28T08:38:59;96866.84;;;-0.59;83.56
39141;BME280;24875;48.436;10.298;2023-02-28T08:41:27;96866.97;;;-0.34;83.92
39141;BME280;24875;48.436;10.298;2023-02-28T08:43:53;96864.06;;;-0.56;84.34
39141;BME280;24875;48.436;10.298;2023-02-28T08:46:20;96863.75;;;-0.51;84.41
39141;BME280;24875;48.436;10.298;2023-02-28T08:48:46;96863.16;;;-0.28;82.93
39141;BME280;24875;48.436;10.298;2023-02-28T08:51:15;96870.00;;;-0.01;82.14
39141;BME280;24875;48.436;10.298;2023-02-28T08:53:44;96879.84;;;-0.06;81.30
39141;BME280;24875;48.436;10.298;2023-02-28T08:56:13;96880.53;;;-0.04;82.30
39141;BME280;24875;48.436;10.298;2023-02-28T08:58:41;96881.78;;;-0.09;81.58
39141;BME280;24875;48.436;10.298;2023-02-28T09:01:09;96872.88;;;-0.05;82.79
39141;BME280;24875;48.436;10.298;2023-02-28T09:03:35;96882.47;;;0.06;82.64
39141;BME280;24875;48.436;10.298;2023-02-28T09:06:02;96882.06;;;0.12;82.40
39141;BME280;24875;48.436;10.298;2023-02-28T09:08:30;96879.69;;;0.09;82.36
39141;BME280;24875;48.436;10.298;2023-02-28T09:10:57;96886.91;;;0.04;81.73
39141;BME280;24875;48.436;10.298;2023-02-28T09:13:24;96881.34;;;0.10;81.37
39141;BME280;24875;48.436;10.298;2023-02-28T09:15:52;96881.69;;;0.18;82.25
39141;BME280;24875;48.436;10.298;2023-02-28T09:18:19;96889.78;;;0.26;82.11
39141;BME280;24875;48.436;10.298;2023-02-28T09:20:46;96885.88;;;0.33;81.45
39141;BME280;24875;48.436;10.298;2023-02-28T09:23:13;96890.13;;;0.47;80.62
39141;BME280;24875;48.436;10.298;2023-02-28T09:25:45;96889.22;;;0.48;81.50
39141;BME280;24875;48.436;10.298;2023-02-28T09:28:11;96893.47;;;0.61;81.02
39141;BME280;24875;48.436;10.298;2023-02-28T09:30:39;96897.34;;;0.68;79.23
39141;BME280;24875;48.436;10.298;2023-02-28T09:33:07;96904.91;;;0.71;80.03
39141;BME280;24875;48.436;10.298;2023-02-28T09:35:34;96900.34;;;0.62;80.77
39141;BME280;24875;48.436;10.298;2023-02-28T09:38:02;96908.97;;;0.87;78.54
39141;BME280;24875;48.436;10.298;2023-02-28T09:40:29;96898.50;;;0.76;78.68
39141;BME280;24875;48.436;10.298;2023-02-28T09:42:57;96906.38;;;0.75;78.43
39141;BME280;24875;48.436;10.298;2023-02-28T09:45:28;96916.56;;;1.03;76.99
39141;BME280;24875;48.436;10.298;2023-02-28T09:47:59;96911.25;;;1.04;78.95
39141;BME280;24875;48.436;10.298;2023-02-28T09:50:35;96911.25;;;1.04;77.79
39141;BME280;24875;48.436;10.298;2023-02-28T09:53:14;96914.69;;;0.92;77.80
39141;BME280;24875;48.436;10.298;2023-02-28T09:55:47;96907.22;;;1.00;76.81
39141;BME280;24875;48.436;10.298;2023-02-28T09:58:18;96911.88;;;1.08;77.34
39141;BME280;24875;48.436;10.298;2023-02-28T10:00:51;96913.34;;;1.12;76.81
39141;BME280;24875;48.436;10.298;2023-02-28T10:03:28;96915.13;;;1.23;76.32
39141;BME280;24875;48.436;10.298;2023-02-28T10:06:01;96909.59;;;1.40;77.93
39141;BME280;24875;48.436;10.298;2023-02-28T10:08:36;96902.91;;;1.49;76.18
39141;BME280;24875;48.436;10.298;2023-02-28T10:11:07;96899.94;;;1.78;77.42
39141;BME280;24875;48.436;10.298;2023-02-28T10:13:41;96908.31;;;1.58;74.71
39141;BME280;24875;48.436;10.298;2023-02-28T10:16:15;96903.84;;;1.60;75.75
39141;BME280;24875;48.436;10.298;2023-02-28T10:18:46;96894.75;;;1.78;76.24
39141;BME280;24875;48.436;10.298;2023-02-28T10:21:20;96906.63;;;1.82;76.83
39141;BME280;24875;48.436;10.298;2023-02-28T10:23:47;96901.69;;;1.90;74.54
39141;BME280;24875;48.436;10.298;2023-02-28T10:26:17;96898.81;;;1.82;74.97
39141;BME280;24875;48.436;10.298;2023-02-28T10:28:44;96897.06;;;1.70;74.40
39141;BME280;24875;48.436;10.298;2023-02-28T10:31:14;96894.59;;;1.92;72.74
39141;BME280;24875;48.436;10.298;2023-02-28T10:33:42;96892.75;;;1.94;72.86
39141;BME280;24875;48.436;10.298;2023-02-28T10:36:13;96897.75;;;2.20;72.96
39141;BME280;24875;48.436;10.298;2023-02-28T10:38:44;96896.47;;;2.26;73.78
39141;BME280;24875;48.436;10.298;2023-02-28T10:41:13;96881.19;;;2.44;72.40
39141;BME280;24875;48.436;10.298;2023-02-28T10:43:41;96889.91;;;2.43;70.76
39141;BME280;24875;48.436;10.298;2023-02-28T10:46:13;96893.41;;;2.66;70.64
39141;BME280;24875;48.436;10.298;2023-02-28T10:49:00;96896.56;;;2.82;70.25
39141;BME280;24875;48.436;10.298;2023-02-28T10:51:34;96893.63;;;2.97;71.19
39141;BME280;24875;48.436;10.298;2023-02-28T10:54:03;96886.06;;;3.05;71.41
39141;BME280;24875;48.436;10.298;2023-02-28T10:56:31;96891.53;;;3.24;71.51
39141;BME280;24875;48.436;10.298;2023-02-28T10:59:00;96887.50;;;3.31;70.42
39141;BME280;24875;48.436;10.298;2023-02-28T11:01:35;96885.47;;;3.12;70.42
39141;BME280;24875;48.436;10.298;2023-02-28T11:04:16;96879.00;;;3.29;68.30
39141;BME280;24875;48.436;10.298;2023-02-28T11:06:43;96885.50;;;3.23;70.48
39141;BME280;24875;48.436;10.298;2023-02-28T11:09:19;96886.06;;;3.27;70.07
39141;BME280;24875;48.436;10.298;2023-02-28T11:11:49;96890.09;;;3.31;70.59
39141;BME280;24875;48.436;10.298;2023-02-28T11:14:19;96886.81;;;3.29;69.41
39141;BME280;24875;48.436;10.298;2023-02-28T11:16:47;96890.59;;;3.36;71.25
39141;BME280;24875;48.436;10.298;2023-02-28T11:19:19;96883.75;;;3.35;69.96
39141;BME280;24875;48.436;10.298;2023-02-28T11:21:52;96892.50;;;3.56;69.08
39141;BME280;24875;48.436;10.298;2023-02-28T11:24:24;96894.59;;;3.18;68.82
39141;BME280;24875;48.436;10.298;2023-02-28T11:26:53;96898.09;;;2.95;69.66
39141;BME280;24875;48.436;10.298;2023-02-28T11:29:23;96892.72;;;3.20;68.47
39141;BME280;24875;48.436;10.298;2023-02-28T11:32:13;96885.50;;;3.34;69.32
39141;BME280;24875;48.436;10.298;2023-02-28T11:34:43;96891.06;;;3.41;68.54
39141;BME280;24875;48.436;10.298;2023-02-28T11:37:12;96887.50;;;3.31;68.70
39141;BME280;24875;48.436;10.298;2023-02-28T11:39:41;96891.50;;;3.13;67.75
39141;BME280;24875;48.436;10.298;2023-02-28T11:42:23;96884.94;;;3.53;67.01
39141;BME280;24875;48.436;10.298;2023-02-28T11:45:04;96892.00;;;3.29;68.00
39141;BME280;24875;48.436;10.298;2023-02-28T11:47:40;96888.56;;;3.39;68.21
39141;BME280;24875;48.436;10.298;2023-02-28T11:50:26;96882.41;;;3.51;68.61
39141;BME280;24875;48.436;10.298;2023-02-28T11:53:00;96871.41;;;3.59;67.00
39141;BME280;24875;48.436;10.298;2023-02-28T11:55:32;96872.78;;;3.95;66.80
39141;BME280;24875;48.436;10.298;2023-02-28T11:58:29;96873.72;;;4.05;67.77
39141;BME280;24875;48.436;10.298;2023-02-28T12:01:11;96865.22;;;3.92;69.25
39141;BME280;24875;48.436;10.298;2023-02-28T12:03:44;96864.66;;;4.20;66.69
39141;BME280;24875;48.436;10.298;2023-02-28T12:06:21;96866.00;;;4.35;66.08
39141;BME280;24875;48.436;10.298;2023-02-28T12:09:00;96872.59;;;4.19;65.40
39141;BME280;24875;48.436;10.298;2023-02-28T12:11:41;96871.56;;;4.41;64.76
39141;BME280;24875;48.436;10.298;2023-02-28T12:14:40;96869.25;;;4.59;65.96
39141;BME280;24875;48.436;10.298;2023-02-28T12:17:21;96870.63;;;4.63;66.40
39141;BME280;24875;48.436;10.298;2023-02-28T12:19:56;96868.16;;;4.61;63.41
39141;BME280;24875;48.436;10.298;2023-02-28T12:22:31;96858.94;;;4.78;63.90
39141;BME280;24875;48.436;10.298;2023-02-28T12:25:22;96863.53;;;4.65;64.06
39141;BME280;24875;48.436;10.298;2023-02-28T12:27:52;96856.47;;;4.76;68.25
39141;BME280;24875;48.436;10.298;2023-02-28T12:30:21;96857.66;;;4.92;67.08
39141;BME280;24875;48.436;10.298;2023-02-28T12:32:52;96854.28;;;5.01;65.50
39141;BME280;24875;48.436;10.298;2023-02-28T12:35:24;96852.50;;;4.82;65.34
39141;BME280;24875;48.436;10.298;2023-02-28T12:37:56;96846.78;;;5.08;65.89
39141;BME280;24875;48.436;10.298;2023-02-28T12:40:28;96840.44;;;5.10;65.36
39141;BME280;24875;48.436;10.298;2023-02-28T12:43:03;96840.06;;;5.15;67.70
39141;BME280;24875;48.436;10.298;2023-02-28T12:45:39;96846.13;;;4.75;63.30
39141;BME280;24875;48.436;10.298;2023-02-28T12:48:09;96832.75;;;4.68;62.91
39141;BME280;24875;48.436;10.298;2023-02-28T12:50:39;96840.09;;;4.74;65.33
39141;BME280;24875;48.436;10.298;2023-02-28T12:53:09;96833.84;;;4.66;65.21
39141;BME280;24875;48.436;10.298;2023-02-28T12:55:45;96842.75;;;4.83;66.79
39141;BME280;24875;48.436;10.298;2023-02-28T12:58:20;96837.16;;;5.08;65.91
39141;BME280;24875;48.436;10.298;2023-02-28T13:01:05;96830.59;;;4.93;66.87
39141;BME280;24875;48.436;10.298;2023-02-28T13:04:02;96832.00;;;4.97;65.23
39141;BME280;24875;48.436;10.298;2023-02-28T13:06:45;96827.97;;;4.93;64.78
39141;BME280;24875;48.436;10.298;2023-02-28T13:09:21;96821.09;;;4.92;64.88
39141;BME280;24875;48.436;10.298;2023-02-28T13:11:48;96816.41;;;4.86;64.54
39141;BME280;24875;48.436;10.298;2023-02-28T13:14:21;96813.94;;;4.85;65.57